createdAt,value
2022-09-07T00:00:49.801Z,19.53
2022-09-07T00:03:19.963Z,19.52
2022-09-07T00:05:50.770Z,19.54
2022-09-07T00:08:22.620Z,19.53
2022-09-07T00:10:55.902Z,19.56
2022-09-07T00:13:24.582Z,19.57
2022-09-07T00:15:52.802Z,19.64
2022-09-07T00:18:20.650Z,19.61
2022-09-07T00:20:59.028Z,19.57
2022-09-07T00:23:27.519Z,19.59
2022-09-07T00:25:55.279Z,19.59
2022-09-07T00:28:23.009Z,19.57
2022-09-07T00:30:50.705Z,19.56
2022-09-07T00:33:18.453Z,19.55
2022-09-07T00:35:46.402Z,19.64
2022-09-07T00:38:15.651Z,19.62
2022-09-07T00:40:44.529Z,19.65
2022-09-07T00:43:17.215Z,19.68
2022-09-07T00:45:44.874Z,19.67
2022-09-07T00:48:17.083Z,19.66
2022-09-07T00:50:48.898Z,19.61
2022-09-07T00:53:23.130Z,19.62
2022-09-07T00:55:53.176Z,19.65
2022-09-07T00:58:23.004Z,19.74
2022-09-07T01:00:51.931Z,19.77
2022-09-07T01:03:26.158Z,19.73
2022-09-07T01:06:00.251Z,19.77
2022-09-07T01:08:32.414Z,19.87
2022-09-07T01:11:01.394Z,19.90
2022-09-07T01:13:29.227Z,19.93
2022-09-07T01:16:06.526Z,19.99
2022-09-07T01:18:43.558Z,20.05
2022-09-07T01:21:22.830Z,19.95
2022-09-07T01:24:20.299Z,19.99
2022-09-07T01:27:18.712Z,19.99
2022-09-07T01:29:56.439Z,19.94
2022-09-07T01:32:33.169Z,19.92
2022-09-07T01:35:06.176Z,19.87
2022-09-07T01:37:44.003Z,19.83
2022-09-07T01:40:30.159Z,19.69
2022-09-07T01:43:04.744Z,19.70
2022-09-07T01:45:37.655Z,19.87
2022-09-07T01:48:08.329Z,19.75
2022-09-07T01:50:41.305Z,19.64
2022-09-07T01:53:15.463Z,19.56
2022-09-07T01:55:48.723Z,19.49
2022-09-07T01:58:21.797Z,19.54
2022-09-07T02:00:55.940Z,19.56
2022-09-07T02:03:32.418Z,19.46
2022-09-07T02:06:05.581Z,19.47
2022-09-07T02:08:41.220Z,19.38
2022-09-07T02:11:14.016Z,19.31
2022-09-07T02:13:49.489Z,19.36
2022-09-07T02:16:30.849Z,19.38
2022-09-07T02:19:04.758Z,19.36
2022-09-07T02:21:37.895Z,19.36
2022-09-07T02:24:10.587Z,19.26
2022-09-07T02:26:41.717Z,19.15
2022-09-07T02:29:09.822Z,19.28
2022-09-07T02:31:39.834Z,19.32
2022-09-07T02:34:07.991Z,19.06
2022-09-07T02:36:41.757Z,19.04
2022-09-07T02:39:09.381Z,19.15
2022-09-07T02:41:39.895Z,19.17
2022-09-07T02:44:11.682Z,19.08
2022-09-07T02:46:53.536Z,18.78
2022-09-07T02:49:34.268Z,18.77
2022-09-07T02:52:13.330Z,18.72
2022-09-07T02:54:51.176Z,18.71
2022-09-07T02:57:27.892Z,18.71
2022-09-07T03:00:07.472Z,18.70
2022-09-07T03:02:44.184Z,18.66
2022-09-07T03:05:21.449Z,18.39
2022-09-07T03:07:55.124Z,18.31
2022-09-07T03:10:24.302Z,18.24
2022-09-07T03:12:52.681Z,18.09
2022-09-07T03:15:23.006Z,18.06
2022-09-07T03:17:52.507Z,18.07
2022-09-07T03:20:21.154Z,18.09
2022-09-07T03:22:50.310Z,18.10
2022-09-07T03:25:23.156Z,18.24
2022-09-07T03:27:50.883Z,18.32
2022-09-07T03:30:18.586Z,18.28
2022-09-07T03:32:47.386Z,18.23
2022-09-07T03:35:16.681Z,18.14
2022-09-07T03:37:44.939Z,18.12
2022-09-07T03:40:15.278Z,18.06
2022-09-07T03:42:43.546Z,18.02
2022-09-07T03:45:12.166Z,18.05
2022-09-07T03:47:41.158Z,18.04
2022-09-07T03:50:09.362Z,18.00
2022-09-07T03:52:38.847Z,18.01
2022-09-07T03:55:07.623Z,17.96
2022-09-07T03:57:35.270Z,17.99
2022-09-07T04:00:03.612Z,18.00
2022-09-07T04:02:32.359Z,18.04
2022-09-07T04:05:00.144Z,18.09
2022-09-07T04:07:27.863Z,18.08
2022-09-07T04:09:57.511Z,18.17
2022-09-07T04:12:27.294Z,18.14
2022-09-07T04:14:58.637Z,18.03
2022-09-07T04:17:26.286Z,18.07
2022-09-07T04:19:54.507Z,18.09
2022-09-07T04:22:22.121Z,18.18
2022-09-07T04:24:49.842Z,18.30
2022-09-07T04:27:18.813Z,18.31
2022-09-07T04:29:48.240Z,18.13
2022-09-07T04:32:18.175Z,18.23
2022-09-07T04:34:45.820Z,18.14
2022-09-07T04:37:13.857Z,18.14
2022-09-07T04:39:41.602Z,18.09
2022-09-07T04:42:09.456Z,18.07
2022-09-07T04:44:38.489Z,18.07
2022-09-07T04:47:06.294Z,18.05
2022-09-07T04:49:33.926Z,18.00
2022-09-07T04:52:01.679Z,18.00
2022-09-07T04:54:29.617Z,18.07
2022-09-07T04:56:57.299Z,18.11
2022-09-07T04:59:27.364Z,18.06
2022-09-07T05:01:56.414Z,18.05
2022-09-07T05:04:24.266Z,18.14
2022-09-07T05:06:53.760Z,18.18
2022-09-07T05:09:21.597Z,18.31
2022-09-07T05:11:51.613Z,18.34
2022-09-07T05:14:19.347Z,18.45
2022-09-07T05:16:47.274Z,18.59
2022-09-07T05:19:16.400Z,18.72
2022-09-07T05:21:44.068Z,18.86
2022-09-07T05:24:11.865Z,18.98
2022-09-07T05:26:39.681Z,19.13
2022-09-07T05:31:55.717Z,19.55
2022-09-07T05:34:29.567Z,19.73
2022-09-07T05:36:59.690Z,19.75
2022-09-07T05:39:30.048Z,19.60
2022-09-07T05:41:57.894Z,19.55
2022-09-07T05:47:13.672Z,19.72
2022-09-07T05:49:42.726Z,19.84
2022-09-07T05:52:12.679Z,20.00
2022-09-07T05:54:40.541Z,20.23
2022-09-07T05:57:12.306Z,20.37
2022-09-07T05:59:40.255Z,20.46
2022-09-07T06:02:08.712Z,21.15
2022-09-07T06:04:37.761Z,22.23
2022-09-07T06:07:23.213Z,23.78
2022-09-07T06:12:44.396Z,26.58
2022-09-07T06:15:16.127Z,27.61
2022-09-07T06:17:43.741Z,28.52
2022-09-07T06:20:12.324Z,29.21
2022-09-07T06:22:43.773Z,29.64
2022-09-07T06:25:11.418Z,29.93
2022-09-07T06:27:39.042Z,29.93
2022-09-07T06:30:07.750Z,30.40
2022-09-07T06:32:45.080Z,30.48
2022-09-07T06:35:13.915Z,30.03
2022-09-07T06:37:43.415Z,30.24
2022-09-07T06:40:12.163Z,30.36
2022-09-07T06:42:40.824Z,30.56
2022-09-07T06:45:11.084Z,29.87
2022-09-07T06:47:39.116Z,29.77
2022-09-07T06:50:07.437Z,30.42
2022-09-07T06:55:27.618Z,30.21
2022-09-07T06:57:55.388Z,29.47
2022-09-07T07:00:23.128Z,30.17
2022-09-07T07:02:50.844Z,30.60
2022-09-07T07:05:18.676Z,31.04
2022-09-07T07:07:46.568Z,31.04
2022-09-07T07:10:14.409Z,30.50
2022-09-07T07:12:53.060Z,30.14
2022-09-07T07:15:20.984Z,29.32
2022-09-07T07:17:56.122Z,29.17
2022-09-07T07:20:26.965Z,28.80
2022-09-07T07:22:55.157Z,28.96
2022-09-07T07:25:22.870Z,28.56
2022-09-07T07:27:52.082Z,28.75
2022-09-07T07:30:21.934Z,29.49
2022-09-07T07:32:49.645Z,30.16
2022-09-07T07:35:17.577Z,30.49
2022-09-07T07:37:48.066Z,30.74
2022-09-07T07:40:17.852Z,30.80
2022-09-07T07:42:48.605Z,30.67
2022-09-07T07:48:06.549Z,29.80
2022-09-07T07:50:34.640Z,29.63
2022-09-07T07:55:50.225Z,30.11
2022-09-07T07:58:20.552Z,30.70
2022-09-07T08:00:54.729Z,31.82
2022-09-07T08:03:23.937Z,32.21
2022-09-07T08:05:52.041Z,32.15
2022-09-07T08:08:20.521Z,32.49
2022-09-07T08:10:48.319Z,32.12
2022-09-07T08:13:16.293Z,32.02
2022-09-07T08:15:46.276Z,30.67
2022-09-07T08:18:17.463Z,29.98
2022-09-07T08:20:48.194Z,28.81
2022-09-07T08:23:16.155Z,27.71
2022-09-07T08:25:51.528Z,26.73
2022-09-07T08:28:19.499Z,26.27
2022-09-07T08:30:47.094Z,25.63
2022-09-07T08:33:16.555Z,25.51
2022-09-07T08:35:44.277Z,26.21
2022-09-07T08:38:12.158Z,26.01
2022-09-07T08:40:54.949Z,25.64
2022-09-07T08:43:39.761Z,25.35
2022-09-07T08:46:21.157Z,25.41
2022-09-07T08:48:55.717Z,25.22
2022-09-07T08:51:33.004Z,25.54
2022-09-07T08:54:01.650Z,26.04
2022-09-07T08:56:33.951Z,26.31
2022-09-07T08:59:05.488Z,27.15
2022-09-07T09:01:37.601Z,27.86
2022-09-07T09:04:16.651Z,27.80
2022-09-07T09:07:00.026Z,27.41
2022-09-07T09:09:39.613Z,26.92
2022-09-07T09:12:17.282Z,26.86
2022-09-07T09:14:58.828Z,26.27
2022-09-07T09:17:32.836Z,26.30
2022-09-07T09:20:11.177Z,26.74
2022-09-07T09:22:38.767Z,26.96
2022-09-07T09:25:18.884Z,27.46
2022-09-07T09:27:46.760Z,27.91
2022-09-07T09:30:16.508Z,28.02
2022-09-07T09:32:46.087Z,27.63
2022-09-07T09:35:20.604Z,27.32
2022-09-07T09:37:48.525Z,26.92
2022-09-07T09:40:25.079Z,26.79
2022-09-07T09:43:02.165Z,26.01
2022-09-07T09:46:12.064Z,25.99
2022-09-07T09:48:22.579Z,26.17
2022-09-07T09:53:57.112Z,26.46
2022-09-07T09:56:37.980Z,26.52
2022-09-07T10:05:28.289Z,26.31
2022-09-07T10:07:57.791Z,26.23
2022-09-07T10:10:27.605Z,26.27
2022-09-07T10:12:56.440Z,26.47
2022-09-07T10:15:39.691Z,26.35
2022-09-07T10:18:18.642Z,26.29
2022-09-07T10:20:46.679Z,26.47
2022-09-07T10:23:23.494Z,26.68
2022-09-07T10:25:51.152Z,27.12
2022-09-07T10:28:21.208Z,27.23
2022-09-07T10:31:10.000Z,27.44
2022-09-07T10:36:47.334Z,27.47
2022-09-07T10:39:22.177Z,27.05
2022-09-07T10:42:02.328Z,27.18
2022-09-07T10:44:43.191Z,27.21
2022-09-07T10:47:20.500Z,27.02
2022-09-07T10:52:47.675Z,27.49
2022-09-07T10:55:26.042Z,27.49
2022-09-07T10:58:06.370Z,27.23
2022-09-07T11:00:42.104Z,27.13
2022-09-07T11:03:26.303Z,27.03
2022-09-07T11:06:16.192Z,27.24
2022-09-07T11:09:16.906Z,27.06
2022-09-07T11:12:07.244Z,26.85
2022-09-07T11:14:42.242Z,26.87
2022-09-07T11:17:16.046Z,26.92
2022-09-07T11:19:51.693Z,27.34
2022-09-07T11:22:29.387Z,27.28
2022-09-07T11:27:59.958Z,27.46
2022-09-07T11:30:31.211Z,27.54
2022-09-07T11:33:06.145Z,27.85
2022-09-07T11:35:45.827Z,27.90
2022-09-07T11:38:26.391Z,27.81
2022-09-07T11:41:01.789Z,27.89
2022-09-07T11:43:33.131Z,28.21
2022-09-07T11:46:06.476Z,28.19
2022-09-07T11:48:39.236Z,28.13
2022-09-07T11:51:15.229Z,28.04
2022-09-07T11:53:46.996Z,27.84
2022-09-07T11:56:19.359Z,27.92
2022-09-07T11:59:12.647Z,28.00
2022-09-07T12:01:48.841Z,27.72
2022-09-07T12:04:41.383Z,27.72
2022-09-07T12:07:50.904Z,27.88
2022-09-07T12:10:37.790Z,27.86
2022-09-07T12:13:35.520Z,28.10
2022-09-07T12:16:09.708Z,28.23
2022-09-07T12:19:01.074Z,28.31
2022-09-07T12:21:37.633Z,28.11
2022-09-07T12:24:05.421Z,28.12
2022-09-07T12:26:51.472Z,28.39
2022-09-07T12:29:23.129Z,28.46
2022-09-07T12:31:59.346Z,28.37
2022-09-07T12:34:57.832Z,28.65
2022-09-07T12:37:42.454Z,28.65
2022-09-07T12:40:48.046Z,28.60
2022-09-07T12:43:47.917Z,28.67
2022-09-07T12:46:21.280Z,28.54
2022-09-07T12:48:58.911Z,28.58
2022-09-07T12:54:31.465Z,28.94
2022-09-07T13:00:06.745Z,29.39
2022-09-07T13:03:49.430Z,29.33
2022-09-07T13:06:03.546Z,29.16
2022-09-07T13:08:50.776Z,29.24
2022-09-07T13:11:32.544Z,29.14
2022-09-07T13:14:04.417Z,28.99
2022-09-07T13:19:57.732Z,28.20
2022-09-07T13:22:57.536Z,27.39
2022-09-07T13:25:47.426Z,26.91
2022-09-07T13:28:26.257Z,26.64
2022-09-07T13:31:06.851Z,26.30
2022-09-07T13:33:53.163Z,25.77
2022-09-07T13:36:42.002Z,25.55
2022-09-07T13:39:15.099Z,25.42
2022-09-07T13:41:48.166Z,25.42
2022-09-07T13:44:25.939Z,25.55
2022-09-07T13:47:16.761Z,25.66
2022-09-07T13:49:56.038Z,25.73
2022-09-07T13:52:31.552Z,25.58
2022-09-07T13:55:11.753Z,25.89
2022-09-07T13:57:50.706Z,26.19
2022-09-07T14:00:19.365Z,26.46
2022-09-07T14:02:55.970Z,26.89
2022-09-07T14:05:25.276Z,27.21
2022-09-07T14:07:52.856Z,27.51
2022-09-07T14:10:24.886Z,27.72
2022-09-07T14:12:54.829Z,27.86
2022-09-07T14:15:28.390Z,28.22
2022-09-07T14:18:04.271Z,28.19
2022-09-07T14:20:33.390Z,27.86
2022-09-07T14:23:01.257Z,27.49
2022-09-07T14:26:16.104Z,27.23
2022-09-07T14:28:32.731Z,27.18
2022-09-07T14:31:01.074Z,27.24
2022-09-07T14:33:30.275Z,27.08
2022-09-07T14:35:59.304Z,26.97
2022-09-07T14:41:20.282Z,27.06
2022-09-07T14:43:55.897Z,27.25
2022-09-07T14:46:25.880Z,27.34
2022-09-07T14:48:55.578Z,27.67
2022-09-07T14:51:35.133Z,27.98
2022-09-07T14:54:05.874Z,27.97
2022-09-07T14:56:37.059Z,27.83
2022-09-07T14:59:35.538Z,27.92
2022-09-07T15:02:26.294Z,27.90
2022-09-07T15:05:28.331Z,27.57
2022-09-07T15:07:58.896Z,27.57
2022-09-07T15:10:35.174Z,27.59
2022-09-07T15:13:07.291Z,27.38
2022-09-07T15:15:37.301Z,27.38
2022-09-07T15:18:26.069Z,27.32
2022-09-07T15:20:56.451Z,27.38
2022-09-07T15:23:24.611Z,27.41
2022-09-07T15:25:54.150Z,27.36
2022-09-07T15:31:56.771Z,27.43
2022-09-07T15:34:19.868Z,27.25
2022-09-07T15:36:49.763Z,27.22
2022-09-07T15:39:21.220Z,27.20
2022-09-07T15:41:49.604Z,27.25
2022-09-07T15:44:24.383Z,27.36
2022-09-07T15:49:44.716Z,27.62
2022-09-07T15:52:17.525Z,27.57
2022-09-07T15:54:45.858Z,27.47
2022-09-07T16:00:03.015Z,27.36
2022-09-07T16:05:20.199Z,27.42
2022-09-07T16:10:36.054Z,27.56
2022-09-07T16:13:10.506Z,27.55
2022-09-07T16:15:45.854Z,27.57
2022-09-07T16:18:16.563Z,27.50
2022-09-07T16:20:46.234Z,27.24
2022-09-07T16:23:16.152Z,27.09
2022-09-07T16:25:55.083Z,27.00
2022-09-07T16:28:22.728Z,26.79
2022-09-07T16:30:51.854Z,26.58
2022-09-07T16:33:19.600Z,26.57
2022-09-07T16:35:59.602Z,26.51
2022-09-07T16:38:44.793Z,26.29
2022-09-07T16:41:14.740Z,26.15
2022-09-07T16:43:42.653Z,26.00
2022-09-07T16:46:15.250Z,25.78
2022-09-07T16:48:44.287Z,25.64
2022-09-07T16:51:13.853Z,25.60
2022-09-07T16:53:41.922Z,25.41
2022-09-07T16:56:11.415Z,25.27
2022-09-07T16:58:41.368Z,25.19
2022-09-07T17:01:13.631Z,24.99
2022-09-07T17:03:42.266Z,24.89
2022-09-07T17:06:13.679Z,24.77
2022-09-07T17:08:42.235Z,24.59
2022-09-07T17:11:11.948Z,24.45
2022-09-07T17:13:41.337Z,24.39
2022-09-07T17:16:13.330Z,24.33
2022-09-07T17:21:31.236Z,24.35
2022-09-07T17:24:01.461Z,24.24
2022-09-07T17:26:29.769Z,24.26
2022-09-07T17:29:01.635Z,24.20
2022-09-07T17:34:21.787Z,23.96
2022-09-07T17:36:49.415Z,23.87
2022-09-07T17:39:18.777Z,23.79
2022-09-07T17:41:47.315Z,23.75
2022-09-07T17:44:16.711Z,23.66
2022-09-07T17:46:45.712Z,23.63
2022-09-07T17:49:16.310Z,23.63
2022-09-07T17:51:44.691Z,23.63
2022-09-07T17:54:14.628Z,23.61
2022-09-07T17:56:43.035Z,23.56
2022-09-07T18:02:00.907Z,23.50
2022-09-07T18:04:28.897Z,23.47
2022-09-07T18:06:56.596Z,23.44
2022-09-07T18:09:24.247Z,23.41
2022-09-07T18:11:51.836Z,23.35
2022-09-07T18:14:20.322Z,23.24
2022-09-07T18:16:50.270Z,23.20
2022-09-07T18:19:19.790Z,23.24
2022-09-07T18:21:48.618Z,23.21
2022-09-07T18:24:18.251Z,23.28
2022-09-07T18:26:50.996Z,23.29
2022-09-07T18:29:28.616Z,23.34
2022-09-07T18:31:58.305Z,23.34
2022-09-07T18:34:28.458Z,23.33
2022-09-07T18:36:57.144Z,23.31
2022-09-07T18:39:24.823Z,23.26
2022-09-07T18:41:53.302Z,23.18
2022-09-07T18:47:16.094Z,23.03
2022-09-07T18:49:49.936Z,22.97
2022-09-07T18:55:07.884Z,22.94
2022-09-07T18:57:36.501Z,22.90
2022-09-07T19:00:05.910Z,22.97
2022-09-07T19:02:34.222Z,23.01
2022-09-07T19:07:51.046Z,23.03
2022-09-07T19:10:18.996Z,23.08
2022-09-07T19:12:46.579Z,23.13
2022-09-07T19:15:15.951Z,23.17
2022-09-07T19:17:43.852Z,23.19
2022-09-07T19:20:13.009Z,23.19
2022-09-07T19:22:42.681Z,23.13
2022-09-07T19:25:11.220Z,23.03
2022-09-07T19:27:38.796Z,22.97
2022-09-07T19:30:07.175Z,23.01
2022-09-07T19:32:34.814Z,22.95
2022-09-07T19:35:02.443Z,22.93
2022-09-07T19:37:32.671Z,22.92
2022-09-07T19:40:01.267Z,22.93
2022-09-07T19:42:29.537Z,22.85
2022-09-07T19:44:57.163Z,22.74
2022-09-07T19:47:24.803Z,22.73
2022-09-07T19:49:52.707Z,22.70
2022-09-07T19:52:20.431Z,22.70
2022-09-07T19:54:49.452Z,22.59
2022-09-07T19:57:17.026Z,22.47
2022-09-07T19:59:45.551Z,22.33
2022-09-07T20:02:13.329Z,22.20
2022-09-07T20:04:40.881Z,22.05
2022-09-07T20:07:08.413Z,21.94
2022-09-07T20:09:36.595Z,21.85
2022-09-07T20:12:08.280Z,21.72
2022-09-07T20:14:35.879Z,21.67
2022-09-07T20:17:03.877Z,21.63
2022-09-07T20:19:31.383Z,21.57
2022-09-07T20:21:58.930Z,21.51
2022-09-07T20:24:26.690Z,21.55
2022-09-07T20:26:54.358Z,21.49
2022-09-07T20:29:27.879Z,21.50
2022-09-07T20:31:56.117Z,21.44
2022-09-07T20:34:23.696Z,21.37
2022-09-07T20:36:51.719Z,21.32
2022-09-07T20:39:20.255Z,21.24
2022-09-07T20:41:48.477Z,21.21
2022-09-07T20:44:16.490Z,21.21
2022-09-07T20:46:45.546Z,21.18
2022-09-07T20:49:13.221Z,21.07
2022-09-07T20:51:41.101Z,20.99
2022-09-07T20:54:08.837Z,20.93
2022-09-07T20:56:36.420Z,20.88
2022-09-07T20:59:05.200Z,20.87
2022-09-07T21:01:34.905Z,20.83
2022-09-07T21:04:05.955Z,20.79
2022-09-07T21:06:33.841Z,20.73
2022-09-07T21:09:01.582Z,20.70
2022-09-07T21:11:31.075Z,20.75
2022-09-07T21:14:00.477Z,20.77
2022-09-07T21:16:29.137Z,20.79
2022-09-07T21:18:59.280Z,20.85
2022-09-07T21:21:29.603Z,20.97
2022-09-07T21:23:59.161Z,20.97
2022-09-07T21:26:27.655Z,20.93
2022-09-07T21:28:57.304Z,20.84
2022-09-07T21:31:25.149Z,20.76
2022-09-07T21:33:55.344Z,20.69
2022-09-07T21:36:23.184Z,20.57
2022-09-07T21:38:52.301Z,20.45
2022-09-07T21:41:21.605Z,20.42
2022-09-07T21:43:49.266Z,20.50
2022-09-07T21:46:18.492Z,20.47
2022-09-07T21:48:46.898Z,20.53
2022-09-07T21:51:15.331Z,20.50
2022-09-07T21:53:43.739Z,20.38
2022-09-07T21:56:14.579Z,20.32
2022-09-07T21:58:43.633Z,20.33
2022-09-07T22:01:19.315Z,20.29
2022-09-07T22:03:48.572Z,20.29
2022-09-07T22:06:16.155Z,20.19
2022-09-07T22:08:44.898Z,20.16
2022-09-07T22:11:16.102Z,20.13
2022-09-07T22:13:44.178Z,20.11
2022-09-07T22:16:13.028Z,20.12
2022-09-07T22:18:43.885Z,20.09
2022-09-07T22:21:13.856Z,20.02
2022-09-07T22:23:43.892Z,19.92
2022-09-07T22:26:11.514Z,19.90
2022-09-07T22:28:40.696Z,19.87
2022-09-07T22:31:09.811Z,19.90
2022-09-07T22:33:37.477Z,19.89
2022-09-07T22:36:13.046Z,19.75
2022-09-07T22:38:40.862Z,19.72
2022-09-07T22:41:10.455Z,19.71
2022-09-07T22:43:39.784Z,19.73
2022-09-07T22:46:07.646Z,19.69
2022-09-07T22:48:35.302Z,19.67
2022-09-07T22:51:03.619Z,19.65
2022-09-07T22:53:33.303Z,19.64
2022-09-07T22:56:05.742Z,19.68
2022-09-07T22:58:33.295Z,19.63
2022-09-07T23:01:02.522Z,19.62
2022-09-07T23:03:36.030Z,19.51
2022-09-07T23:06:04.634Z,19.42
2022-09-07T23:08:32.565Z,19.39
2022-09-07T23:11:05.120Z,19.50
2022-09-07T23:13:33.765Z,19.61
2022-09-07T23:16:07.145Z,19.65
2022-09-07T23:18:36.078Z,19.72
2022-09-07T23:21:03.827Z,19.67
2022-09-07T23:23:31.685Z,19.72
2022-09-07T23:26:01.807Z,19.65
2022-09-07T23:28:29.921Z,19.68
2022-09-07T23:30:58.360Z,19.66
2022-09-07T23:33:28.095Z,19.55
2022-09-07T23:35:56.701Z,19.43
2022-09-07T23:38:24.884Z,19.43
2022-09-07T23:40:52.909Z,19.51
2022-09-07T23:43:20.594Z,19.53
2022-09-07T23:45:48.390Z,19.56
2022-09-07T23:48:16.319Z,19.54
2022-09-07T23:50:45.951Z,19.61
2022-09-07T23:53:14.157Z,19.49
2022-09-07T23:55:42.796Z,19.43
2022-09-07T23:58:10.728Z,19.48
